createdAt,value
2019-05-29T00:00:04.558Z,20.374451
2019-05-29T00:01:05.139Z,20.354309
2019-05-29T00:02:04.794Z,20.344238
2019-05-29T00:03:04.877Z,20.344238
2019-05-29T00:04:04.864Z,20.344238
2019-05-29T00:05:04.838Z,20.334167
2019-05-29T00:06:04.923Z,20.334167
2019-05-29T00:07:04.910Z,20.314026
2019-05-29T00:08:04.970Z,20.314026
2019-05-29T00:09:04.907Z,20.273743
2019-05-29T00:10:04.938Z,20.273743
2019-05-29T00:11:04.913Z,20.273743
2019-05-29T00:12:05.153Z,20.253601
2019-05-29T00:13:05.024Z,20.253601
2019-05-29T00:14:17.706Z,20.253601
2019-05-29T00:15:05.060Z,20.253601
2019-05-29T00:16:05.073Z,20.233459
2019-05-29T00:17:05.087Z,20.233459
2019-05-29T00:18:05.085Z,20.223389
2019-05-29T00:19:05.132Z,20.233459
2019-05-29T00:20:05.123Z,20.223389
2019-05-29T00:21:05.107Z,20.203247
2019-05-29T00:22:05.105Z,20.203247
2019-05-29T00:23:05.143Z,20.203247
2019-05-29T00:24:05.152Z,20.193176
2019-05-29T00:25:05.203Z,20.173035
2019-05-29T00:26:05.186Z,20.173035
2019-05-29T00:27:04.210Z,20.173035
2019-05-29T00:28:05.357Z,20.162964
2019-05-29T00:29:04.414Z,20.152893
2019-05-29T00:30:05.583Z,20.152893
2019-05-29T00:31:04.538Z,20.152893
2019-05-29T00:32:05.649Z,20.122681
2019-05-29T00:33:04.700Z,20.132751
2019-05-29T00:34:05.816Z,20.132751
2019-05-29T00:35:04.827Z,20.122681
2019-05-29T00:36:04.989Z,20.102539
2019-05-29T00:37:05.131Z,20.102539
2019-05-29T00:38:05.265Z,20.082397
2019-05-29T00:39:05.361Z,20.072327
2019-05-29T00:40:05.530Z,20.072327
2019-05-29T00:41:05.612Z,20.072327
2019-05-29T00:42:05.761Z,20.052185
2019-05-29T00:43:06.042Z,20.042114
2019-05-29T00:44:05.989Z,20.042114
2019-05-29T00:45:06.099Z,20.021973
2019-05-29T00:46:06.196Z,20.011902
2019-05-29T00:47:06.305Z,20.011902
2019-05-29T00:48:06.437Z,20.011902
2019-05-29T00:49:06.575Z,19.981689
2019-05-29T00:50:06.744Z,20.001831
2019-05-29T00:51:07.805Z,19.981689
2019-05-29T00:52:06.862Z,19.981689
2019-05-29T00:53:06.985Z,19.951477
2019-05-29T00:54:07.111Z,19.941406
2019-05-29T00:55:07.326Z,19.951477
2019-05-29T00:56:07.389Z,19.951477
2019-05-29T00:57:07.575Z,19.921265
2019-05-29T00:58:07.628Z,19.921265
2019-05-29T00:59:07.805Z,19.921265
2019-05-29T01:00:07.927Z,19.901123
2019-05-29T01:01:08.091Z,19.901123
2019-05-29T01:02:08.220Z,19.870911
2019-05-29T01:03:08.338Z,19.870911
2019-05-29T01:04:08.433Z,19.870911
2019-05-29T01:05:08.607Z,19.86084
2019-05-29T01:06:08.722Z,19.850769
2019-05-29T01:07:08.893Z,19.850769
2019-05-29T01:08:09.034Z,19.830627
2019-05-29T01:09:09.187Z,19.830627
2019-05-29T01:10:09.354Z,19.830627
2019-05-29T01:11:09.488Z,19.820557
2019-05-29T01:12:09.624Z,19.820557
2019-05-29T01:13:09.855Z,19.800415
2019-05-29T01:14:09.934Z,19.800415
2019-05-29T01:15:10.111Z,19.790344
2019-05-29T01:16:10.209Z,19.780273
2019-05-29T01:17:10.334Z,19.780273
2019-05-29T01:18:10.484Z,19.760132
2019-05-29T01:19:10.662Z,19.750061
2019-05-29T01:20:10.688Z,19.750061
2019-05-29T01:21:10.711Z,19.750061
2019-05-29T01:22:10.846Z,19.750061
2019-05-29T01:23:10.982Z,19.750061
2019-05-29T01:24:11.107Z,19.719849
2019-05-29T01:25:11.268Z,19.719849
2019-05-29T01:26:11.369Z,19.719849
2019-05-29T01:27:11.458Z,19.709778
2019-05-29T01:28:11.569Z,19.699707
2019-05-29T01:29:11.740Z,19.679565
2019-05-29T01:30:11.895Z,19.679565
2019-05-29T01:31:12.017Z,19.669495
2019-05-29T01:32:12.168Z,19.649353
2019-05-29T01:33:13.271Z,19.649353
2019-05-29T01:34:12.431Z,19.649353
2019-05-29T01:35:12.574Z,19.649353
2019-05-29T01:36:12.687Z,19.639282
2019-05-29T01:37:12.836Z,19.60907
2019-05-29T01:38:13.967Z,19.60907
2019-05-29T01:39:14.003Z,19.598999
2019-05-29T01:40:19.774Z,19.598999
2019-05-29T01:41:14.055Z,19.598999
2019-05-29T01:42:14.097Z,19.578857
2019-05-29T01:43:14.108Z,19.578857
2019-05-29T01:44:14.130Z,19.568787
2019-05-29T01:45:14.147Z,19.548645
2019-05-29T01:46:14.182Z,19.548645
2019-05-29T01:47:14.217Z,19.528503
2019-05-29T01:48:14.233Z,19.528503
2019-05-29T01:49:14.252Z,19.518433
2019-05-29T01:50:14.277Z,19.518433
2019-05-29T01:51:14.284Z,19.498291
2019-05-29T01:52:14.323Z,19.48822
2019-05-29T01:53:14.348Z,19.468079
2019-05-29T01:54:14.356Z,19.468079
2019-05-29T01:55:14.493Z,19.468079
2019-05-29T01:56:14.405Z,19.458008
2019-05-29T01:57:14.444Z,19.458008
2019-05-29T01:58:14.449Z,19.458008
2019-05-29T01:59:14.471Z,19.427795
2019-05-29T02:00:14.482Z,19.427795
2019-05-29T02:01:14.495Z,19.427795
2019-05-29T02:02:14.513Z,19.417725
2019-05-29T02:03:14.527Z,19.397583
2019-05-29T02:04:14.532Z,19.397583
2019-05-29T02:05:14.574Z,19.387512
2019-05-29T02:06:14.614Z,19.377441
2019-05-29T02:07:14.615Z,19.347229
2019-05-29T02:08:14.790Z,19.347229
2019-05-29T02:09:14.774Z,19.347229
2019-05-29T02:10:14.821Z,19.317017
2019-05-29T02:11:13.882Z,19.317017
2019-05-29T02:12:15.035Z,19.306946
2019-05-29T02:13:14.062Z,19.317017
2019-05-29T02:14:15.214Z,19.296875
2019-05-29T02:15:23.581Z,19.296875
2019-05-29T02:16:15.336Z,19.276733
2019-05-29T02:17:14.380Z,19.266663
2019-05-29T02:18:15.521Z,19.266663
2019-05-29T02:19:14.546Z,19.266663
2019-05-29T02:20:15.689Z,19.266663
2019-05-29T02:21:14.713Z,19.266663
2019-05-29T02:22:15.746Z,19.23645
2019-05-29T02:23:14.687Z,19.23645
2019-05-29T02:24:15.846Z,19.246521
2019-05-29T02:25:16.257Z,19.23645
2019-05-29T02:26:14.998Z,19.23645
2019-05-29T02:27:16.156Z,19.23645
2019-05-29T02:28:15.182Z,19.226379
2019-05-29T02:29:15.305Z,19.226379
2019-05-29T02:30:15.622Z,19.226379
2019-05-29T02:31:15.790Z,19.206238
2019-05-29T02:32:15.912Z,19.206238
2019-05-29T02:33:15.947Z,19.206238
2019-05-29T02:34:16.114Z,19.196167
2019-05-29T02:35:16.305Z,19.196167
2019-05-29T02:36:16.359Z,19.196167
2019-05-29T02:37:16.645Z,19.196167
2019-05-29T02:38:16.821Z,19.155884
2019-05-29T02:39:16.920Z,19.155884
2019-05-29T02:40:16.971Z,19.145813
2019-05-29T02:41:17.132Z,19.145813
2019-05-29T02:42:17.239Z,19.145813
2019-05-29T02:43:17.480Z,19.125671
2019-05-29T02:44:17.560Z,19.125671
2019-05-29T02:45:17.675Z,19.125671
2019-05-29T02:46:17.782Z,19.115601
2019-05-29T02:47:18.002Z,19.115601
2019-05-29T02:48:19.172Z,19.095459
2019-05-29T02:49:18.098Z,19.085388
2019-05-29T02:50:18.130Z,19.065247
2019-05-29T02:51:18.258Z,19.065247
2019-05-29T02:52:18.456Z,19.065247
2019-05-29T02:53:18.604Z,19.055176
2019-05-29T02:54:18.749Z,19.024963
2019-05-29T02:55:18.826Z,19.045105
2019-05-29T02:56:18.929Z,19.024963
2019-05-29T02:57:19.101Z,19.024963
2019-05-29T02:58:19.352Z,18.994751
2019-05-29T02:59:19.495Z,19.014893
2019-05-29T03:00:19.506Z,18.994751
2019-05-29T03:01:19.771Z,18.994751
2019-05-29T03:02:19.838Z,18.974609
2019-05-29T03:03:19.964Z,18.974609
2019-05-29T03:04:20.127Z,18.964539
2019-05-29T03:05:20.297Z,18.964539
2019-05-29T03:06:20.449Z,18.964539
2019-05-29T03:07:20.489Z,18.934326
2019-05-29T03:08:20.735Z,18.964539
2019-05-29T03:09:20.848Z,18.944397
2019-05-29T03:10:21.109Z,18.944397
2019-05-29T03:11:21.259Z,18.944397
2019-05-29T03:12:21.309Z,18.934326
2019-05-29T03:13:21.587Z,18.934326
2019-05-29T03:14:21.455Z,18.904114
2019-05-29T03:15:21.689Z,18.914185
2019-05-29T03:16:21.893Z,18.904114
2019-05-29T03:17:21.882Z,18.914185
2019-05-29T03:18:22.103Z,18.904114
2019-05-29T03:19:22.339Z,18.894043
2019-05-29T03:20:22.543Z,18.894043
2019-05-29T03:21:22.479Z,18.894043
2019-05-29T03:22:22.605Z,18.894043
2019-05-29T03:23:22.730Z,18.873901
2019-05-29T03:24:22.791Z,18.873901
2019-05-29T03:25:22.835Z,18.873901
2019-05-29T03:26:25.097Z,18.863831
2019-05-29T03:27:24.137Z,18.863831
2019-05-29T03:28:24.177Z,18.843689
2019-05-29T03:29:24.243Z,18.843689
2019-05-29T03:30:24.563Z,18.833618
2019-05-29T03:31:24.533Z,18.833618
2019-05-29T03:32:24.450Z,18.823547
2019-05-29T03:33:24.604Z,18.793335
2019-05-29T03:34:24.718Z,18.793335
2019-05-29T03:35:24.633Z,18.793335
2019-05-29T03:36:24.710Z,18.793335
2019-05-29T03:37:24.583Z,18.783264
2019-05-29T03:38:24.582Z,18.783264
2019-05-29T03:39:24.667Z,18.783264
2019-05-29T03:40:24.612Z,18.763123
2019-05-29T03:41:24.785Z,18.753052
2019-05-29T03:42:24.793Z,18.763123
2019-05-29T03:43:24.810Z,18.753052
2019-05-29T03:44:24.870Z,18.763123
2019-05-29T03:45:25.012Z,18.753052
2019-05-29T03:46:30.988Z,18.742981
2019-05-29T03:47:25.132Z,18.742981
2019-05-29T03:48:24.222Z,18.753052
2019-05-29T03:49:25.217Z,18.722839
2019-05-29T03:50:24.389Z,18.722839
2019-05-29T03:51:25.349Z,18.742981
2019-05-29T03:52:24.470Z,18.722839
2019-05-29T03:53:25.498Z,18.722839
2019-05-29T03:54:24.620Z,18.722839
2019-05-29T03:55:25.752Z,18.712769
2019-05-29T03:56:24.886Z,18.712769
2019-05-29T03:57:25.809Z,18.692627
2019-05-29T03:58:24.895Z,18.712769
2019-05-29T03:59:24.953Z,18.692627
2019-05-29T04:00:25.149Z,18.692627
2019-05-29T04:01:25.127Z,18.692627
2019-05-29T04:02:25.255Z,18.692627
2019-05-29T04:03:25.277Z,18.682556
2019-05-29T04:04:25.254Z,18.682556
2019-05-29T04:05:25.339Z,18.662415
2019-05-29T04:06:25.302Z,18.662415
2019-05-29T04:07:25.408Z,18.662415
2019-05-29T04:08:25.728Z,18.662415
2019-05-29T04:09:25.554Z,18.682556
2019-05-29T04:10:25.643Z,18.652344
2019-05-29T04:11:25.657Z,18.642273
2019-05-29T04:12:25.613Z,18.652344
2019-05-29T04:13:25.668Z,18.622131
2019-05-29T04:14:25.820Z,18.642273
2019-05-29T04:15:25.777Z,18.662415
2019-05-29T04:16:25.836Z,18.642273
2019-05-29T04:17:25.869Z,18.642273
2019-05-29T04:18:25.964Z,18.60199
2019-05-29T04:19:26.035Z,18.60199
2019-05-29T04:20:25.981Z,18.622131
2019-05-29T04:21:26.080Z,18.622131
2019-05-29T04:22:26.235Z,18.591919
2019-05-29T04:23:26.186Z,18.60199
2019-05-29T04:24:26.190Z,18.571777
2019-05-29T04:25:29.914Z,18.591919
2019-05-29T04:26:26.271Z,18.591919
2019-05-29T04:27:26.267Z,18.571777
2019-05-29T04:28:26.307Z,18.591919
2019-05-29T04:29:26.482Z,18.591919
2019-05-29T04:30:26.530Z,18.561707
2019-05-29T04:31:26.446Z,18.561707
2019-05-29T04:32:26.542Z,18.571777
2019-05-29T04:33:26.572Z,18.571777
2019-05-29T04:34:27.711Z,18.561707
2019-05-29T04:35:26.760Z,18.571777
2019-05-29T04:36:26.849Z,18.571777
2019-05-29T04:37:26.758Z,18.541565
2019-05-29T04:38:26.891Z,18.541565
2019-05-29T04:39:26.912Z,18.541565
2019-05-29T04:40:26.950Z,18.561707
2019-05-29T04:41:27.000Z,18.561707
2019-05-29T04:42:27.123Z,18.561707
2019-05-29T04:43:27.058Z,18.541565
2019-05-29T04:44:27.126Z,18.541565
2019-05-29T04:45:27.194Z,18.541565
2019-05-29T04:46:28.207Z,18.541565
2019-05-29T04:47:27.314Z,18.541565
2019-05-29T04:48:27.346Z,18.541565
2019-05-29T04:49:27.356Z,18.541565
2019-05-29T04:50:27.506Z,18.541565
2019-05-29T04:51:27.487Z,18.541565
2019-05-29T04:52:27.533Z,18.541565
2019-05-29T04:53:27.489Z,18.541565
2019-05-29T04:54:27.582Z,18.531494
2019-05-29T04:55:27.528Z,18.541565
2019-05-29T04:56:27.532Z,18.561707
2019-05-29T04:57:27.747Z,18.541565
2019-05-29T04:58:27.589Z,18.541565
2019-05-29T04:59:27.650Z,18.531494
2019-05-29T05:00:27.705Z,18.531494
2019-05-29T05:01:27.718Z,18.531494
2019-05-29T05:02:27.754Z,18.541565
2019-05-29T05:03:27.789Z,18.541565
2019-05-29T05:04:27.831Z,18.561707
2019-05-29T05:05:27.894Z,18.541565
2019-05-29T05:06:27.955Z,18.541565
2019-05-29T05:07:28.008Z,18.541565
2019-05-29T05:08:28.026Z,18.541565
2019-05-29T05:09:28.075Z,18.541565
2019-05-29T05:10:28.125Z,18.541565
2019-05-29T05:11:28.205Z,18.561707
2019-05-29T05:12:28.277Z,18.541565
2019-05-29T05:13:28.297Z,18.541565
2019-05-29T05:14:28.355Z,18.541565
2019-05-29T05:15:28.406Z,18.561707
2019-05-29T05:16:28.426Z,18.561707
2019-05-29T05:17:28.481Z,18.561707
2019-05-29T05:18:28.553Z,18.561707
2019-05-29T05:19:28.569Z,18.561707
2019-05-29T05:20:28.666Z,18.561707
2019-05-29T05:21:28.683Z,18.561707
2019-05-29T05:22:28.724Z,18.571777
2019-05-29T05:23:28.755Z,18.571777
2019-05-29T05:24:28.850Z,18.571777
2019-05-29T05:25:28.853Z,18.591919
2019-05-29T05:26:28.900Z,18.591919
2019-05-29T05:27:28.957Z,18.591919
2019-05-29T05:28:29.057Z,18.591919
2019-05-29T05:29:29.006Z,18.591919
2019-05-29T05:30:29.111Z,18.60199
2019-05-29T05:31:29.127Z,18.60199
2019-05-29T05:32:29.309Z,18.60199
2019-05-29T05:33:29.243Z,18.591919
2019-05-29T05:34:29.280Z,18.591919
2019-05-29T05:35:29.381Z,18.60199
2019-05-29T05:36:29.385Z,18.60199
2019-05-29T05:37:29.415Z,18.60199
2019-05-29T05:38:29.431Z,18.60199
2019-05-29T05:39:29.471Z,18.622131
2019-05-29T05:40:29.520Z,18.642273
2019-05-29T05:41:29.550Z,18.622131
2019-05-29T05:42:29.782Z,18.622131
2019-05-29T05:43:29.602Z,18.622131
2019-05-29T05:44:29.635Z,18.622131
2019-05-29T05:45:29.688Z,18.622131
2019-05-29T05:46:29.736Z,18.642273
2019-05-29T05:47:44.692Z,18.642273
2019-05-29T05:48:29.852Z,18.642273
2019-05-29T05:49:29.913Z,18.642273
2019-05-29T05:50:29.942Z,18.652344
2019-05-29T05:51:30.017Z,18.642273
2019-05-29T05:52:30.041Z,18.642273
2019-05-29T05:53:30.126Z,18.642273
2019-05-29T05:54:30.168Z,18.642273
2019-05-29T05:55:30.204Z,18.652344
2019-05-29T05:56:30.219Z,18.662415
2019-05-29T05:57:30.292Z,18.662415
2019-05-29T05:58:30.335Z,18.662415
2019-05-29T05:59:30.378Z,18.662415
2019-05-29T06:00:30.408Z,18.662415
2019-05-29T06:01:30.456Z,18.682556
2019-05-29T06:02:30.492Z,18.682556
2019-05-29T06:03:30.513Z,18.682556
2019-05-29T06:04:30.606Z,18.682556
2019-05-29T06:05:30.682Z,18.682556
2019-05-29T06:06:30.707Z,18.692627
2019-05-29T06:07:30.771Z,18.692627
2019-05-29T06:08:30.814Z,18.682556
2019-05-29T06:09:30.833Z,18.682556
2019-05-29T06:10:30.853Z,18.692627
2019-05-29T06:11:30.919Z,18.692627
2019-05-29T06:12:30.997Z,18.692627
2019-05-29T06:13:31.063Z,18.712769
2019-05-29T06:14:31.082Z,18.712769
2019-05-29T06:15:31.171Z,18.712769
2019-05-29T06:16:31.697Z,18.712769
2019-05-29T06:17:31.235Z,18.712769
2019-05-29T06:18:31.272Z,18.722839
2019-05-29T06:19:31.367Z,18.742981
2019-05-29T06:20:31.385Z,18.742981
2019-05-29T06:21:31.439Z,18.742981
2019-05-29T06:22:31.541Z,18.742981
2019-05-29T06:23:31.547Z,18.753052
2019-05-29T06:24:31.586Z,18.753052
2019-05-29T06:25:31.839Z,18.763123
2019-05-29T06:26:31.640Z,18.783264
2019-05-29T06:27:31.716Z,18.763123
2019-05-29T06:28:31.766Z,18.763123
2019-05-29T06:29:32.129Z,18.783264
2019-05-29T06:30:31.908Z,18.793335
2019-05-29T06:31:32.048Z,18.793335
2019-05-29T06:32:32.080Z,18.823547
2019-05-29T06:33:32.121Z,18.823547
2019-05-29T06:34:32.163Z,18.823547
2019-05-29T06:35:32.633Z,18.823547
2019-05-29T06:36:32.155Z,18.833618
2019-05-29T06:37:32.192Z,18.833618
2019-05-29T06:38:32.269Z,18.843689
2019-05-29T06:39:32.317Z,18.843689
2019-05-29T06:40:32.344Z,18.863831
2019-05-29T06:41:32.414Z,18.863831
2019-05-29T06:42:32.429Z,18.863831
2019-05-29T06:43:32.478Z,18.873901
2019-05-29T06:44:32.648Z,18.863831
2019-05-29T06:45:32.573Z,18.894043
2019-05-29T06:46:32.703Z,18.894043
2019-05-29T06:47:32.722Z,18.904114
2019-05-29T06:48:44.494Z,18.904114
2019-05-29T06:49:32.781Z,18.934326
2019-05-29T06:50:33.855Z,18.934326
2019-05-29T06:51:33.933Z,18.964539
2019-05-29T06:52:34.123Z,18.964539
2019-05-29T06:53:34.237Z,18.974609
2019-05-29T06:54:34.368Z,18.994751
2019-05-29T06:55:34.376Z,19.024963
2019-05-29T06:56:34.412Z,19.024963
2019-05-29T06:57:34.589Z,19.065247
2019-05-29T06:58:34.649Z,19.055176
2019-05-29T06:59:34.874Z,19.085388
2019-05-29T07:00:36.108Z,19.085388
2019-05-29T07:01:33.950Z,19.085388
2019-05-29T07:02:35.119Z,19.095459
2019-05-29T07:03:34.158Z,19.085388
2019-05-29T07:04:35.175Z,19.085388
2019-05-29T07:05:34.330Z,19.085388
2019-05-29T07:06:35.381Z,19.085388
2019-05-29T07:07:34.549Z,19.095459
2019-05-29T07:08:39.683Z,19.095459
2019-05-29T07:09:35.703Z,19.115601
2019-05-29T07:10:34.862Z,19.125671
2019-05-29T07:11:35.847Z,19.145813
2019-05-29T07:12:34.925Z,19.145813
2019-05-29T07:13:35.881Z,19.155884
2019-05-29T07:14:34.984Z,19.196167
2019-05-29T07:15:35.030Z,19.165955
2019-05-29T07:16:45.039Z,19.206238
2019-05-29T07:17:35.085Z,19.206238
2019-05-29T07:18:35.152Z,19.226379
2019-05-29T07:19:48.691Z,19.226379
2019-05-29T07:20:35.403Z,19.246521
2019-05-29T07:21:35.362Z,19.246521
2019-05-29T07:22:35.423Z,19.266663
2019-05-29T07:23:35.438Z,19.266663
2019-05-29T07:24:35.488Z,19.276733
2019-05-29T07:25:35.506Z,19.276733
2019-05-29T07:26:35.585Z,19.306946
2019-05-29T07:27:35.572Z,19.306946
2019-05-29T07:28:35.567Z,19.306946
2019-05-29T07:29:35.641Z,19.317017
2019-05-29T07:30:35.901Z,19.347229
2019-05-29T07:31:35.726Z,19.347229
2019-05-29T07:32:35.982Z,19.347229
2019-05-29T07:33:35.854Z,19.377441
2019-05-29T07:34:50.971Z,19.387512
2019-05-29T07:35:36.017Z,19.387512
2019-05-29T07:36:36.224Z,19.387512
2019-05-29T07:37:36.249Z,19.417725
2019-05-29T07:38:36.281Z,19.417725
2019-05-29T07:39:36.264Z,19.427795
2019-05-29T07:40:36.570Z,19.447937
2019-05-29T07:41:36.353Z,19.447937
2019-05-29T07:42:37.438Z,19.468079
2019-05-29T07:43:36.515Z,19.468079
2019-05-29T07:44:36.558Z,19.48822
2019-05-29T07:45:36.587Z,19.498291
2019-05-29T07:46:36.664Z,19.518433
2019-05-29T07:47:36.783Z,19.528503
2019-05-29T07:48:36.847Z,19.528503
2019-05-29T07:49:39.538Z,19.528503
2019-05-29T07:50:36.896Z,19.568787
2019-05-29T07:51:36.891Z,19.578857
2019-05-29T07:52:37.120Z,19.60907
2019-05-29T07:53:37.042Z,19.619141
2019-05-29T07:54:38.447Z,19.619141
2019-05-29T07:55:37.201Z,19.639282
2019-05-29T07:56:37.189Z,19.649353
2019-05-29T07:57:37.307Z,19.669495
2019-05-29T07:58:37.321Z,19.679565
2019-05-29T07:59:37.371Z,19.699707
2019-05-29T08:00:56.158Z,19.699707
2019-05-29T08:01:37.538Z,19.699707
2019-05-29T08:02:37.764Z,19.709778
2019-05-29T08:03:37.734Z,19.719849
2019-05-29T08:04:37.696Z,19.719849
2019-05-29T08:05:37.832Z,19.760132
2019-05-29T08:06:37.794Z,19.760132
2019-05-29T08:07:37.923Z,19.760132
2019-05-29T08:08:37.922Z,19.780273
2019-05-29T08:09:38.043Z,19.760132
2019-05-29T08:10:38.139Z,19.790344
2019-05-29T08:11:38.181Z,19.790344
2019-05-29T08:12:42.096Z,19.800415
2019-05-29T08:13:38.271Z,19.820557
2019-05-29T08:14:38.347Z,19.820557
2019-05-29T08:15:51.724Z,19.820557
2019-05-29T08:16:38.504Z,19.850769
2019-05-29T08:17:38.558Z,19.86084
2019-05-29T08:18:39.318Z,19.850769
2019-05-29T08:19:53.385Z,19.870911
2019-05-29T08:20:38.703Z,19.870911
2019-05-29T08:21:39.054Z,19.870911
2019-05-29T08:22:38.950Z,19.901123
2019-05-29T08:23:39.010Z,19.921265
2019-05-29T08:24:39.078Z,19.921265
2019-05-29T08:25:40.114Z,19.901123
2019-05-29T08:26:39.285Z,19.921265
2019-05-29T08:27:39.243Z,19.941406
2019-05-29T08:28:39.295Z,19.941406
2019-05-29T08:29:39.339Z,19.951477
2019-05-29T08:30:39.443Z,19.951477
2019-05-29T08:31:39.423Z,19.951477
2019-05-29T08:32:39.463Z,19.971619
2019-05-29T08:33:39.550Z,19.971619
2019-05-29T08:34:39.570Z,19.971619
2019-05-29T08:35:40.083Z,19.971619
2019-05-29T08:36:39.628Z,19.971619
2019-05-29T08:37:39.684Z,19.981689
2019-05-29T08:38:40.124Z,20.011902
2019-05-29T08:39:40.037Z,20.011902
2019-05-29T08:40:39.895Z,20.011902
2019-05-29T08:41:40.951Z,20.042114
2019-05-29T08:42:39.913Z,20.021973
2019-05-29T08:43:41.001Z,20.042114
2019-05-29T08:44:40.134Z,20.042114
2019-05-29T08:45:40.168Z,20.052185
2019-05-29T08:46:40.454Z,20.072327
2019-05-29T08:47:40.317Z,20.052185
2019-05-29T08:48:40.412Z,20.072327
2019-05-29T08:49:40.488Z,20.082397
2019-05-29T08:50:40.469Z,20.102539
2019-05-29T08:51:40.579Z,20.132751
2019-05-29T08:52:40.598Z,20.132751
2019-05-29T08:53:40.697Z,20.162964
2019-05-29T08:54:40.827Z,20.173035
2019-05-29T08:55:40.849Z,20.203247
2019-05-29T08:56:40.882Z,20.223389
2019-05-29T08:57:40.926Z,20.253601
2019-05-29T08:58:41.345Z,20.263672
2019-05-29T08:59:41.007Z,20.273743
2019-05-29T09:00:44.535Z,20.273743
2019-05-29T09:01:41.188Z,20.303955
2019-05-29T09:02:41.195Z,20.314026
2019-05-29T09:03:41.277Z,20.314026
2019-05-29T09:04:41.355Z,20.334167
2019-05-29T09:05:41.290Z,20.334167
2019-05-29T09:06:41.357Z,20.354309
2019-05-29T09:07:41.531Z,20.344238
2019-05-29T09:08:41.570Z,20.354309
2019-05-29T09:09:41.629Z,20.344238
2019-05-29T09:10:41.757Z,20.354309
2019-05-29T09:11:41.716Z,20.354309
2019-05-29T09:12:42.365Z,20.374451
2019-05-29T09:17:10.734Z,20.001831
2019-05-29T09:18:11.835Z,19.780273
2019-05-29T09:19:10.881Z,19.568787
2019-05-29T09:20:25.873Z,19.397583
2019-05-29T09:21:11.087Z,19.266663
2019-05-29T09:22:11.174Z,19.145813
2019-05-29T09:23:11.327Z,19.055176
2019-05-29T09:24:11.429Z,18.964539
2019-05-29T09:25:11.536Z,18.894043
2019-05-29T09:26:14.719Z,18.833618
2019-05-29T09:27:11.715Z,18.763123
2019-05-29T09:28:11.833Z,18.722839
2019-05-29T09:29:12.000Z,18.652344
2019-05-29T09:30:12.096Z,18.60199
2019-05-29T09:31:12.250Z,18.541565
2019-05-29T09:32:12.385Z,18.501282
2019-05-29T09:33:12.670Z,18.460999
2019-05-29T09:34:12.669Z,18.390503
2019-05-29T09:35:12.826Z,18.380432
2019-05-29T09:36:12.967Z,18.340149
2019-05-29T09:37:13.070Z,18.309937
2019-05-29T09:38:13.126Z,18.279724
2019-05-29T09:39:13.216Z,18.22937
2019-05-29T09:40:13.362Z,18.199158
2019-05-29T09:41:13.573Z,18.168945
2019-05-29T09:42:13.663Z,18.158875
2019-05-29T09:43:13.770Z,18.128662
2019-05-29T09:44:27.184Z,18.128662
2019-05-29T09:45:14.004Z,18.108521
2019-05-29T09:46:14.113Z,18.09845
2019-05-29T09:47:14.283Z,18.09845
2019-05-29T09:48:14.833Z,18.088379
2019-05-29T09:49:14.499Z,18.09845
2019-05-29T09:50:14.619Z,18.09845
2019-05-29T09:51:50.585Z,18.088379
2019-05-29T09:52:51.794Z,18.09845
2019-05-29T09:53:51.188Z,18.128662
2019-05-29T09:54:50.843Z,18.128662
2019-05-29T09:55:50.978Z,18.158875
2019-05-29T09:56:51.212Z,18.168945
2019-05-29T09:57:51.166Z,18.168945
2019-05-29T09:58:51.308Z,18.189087
2019-05-29T09:59:51.434Z,18.189087
2019-05-29T10:01:08.238Z,18.189087
2019-05-29T10:01:51.611Z,18.168945
2019-05-29T10:02:51.845Z,18.189087
2019-05-29T10:03:51.965Z,18.189087
2019-05-29T10:04:51.864Z,18.199158
2019-05-29T10:05:51.921Z,18.199158
2019-05-29T10:06:52.033Z,18.209229
2019-05-29T10:07:52.056Z,18.22937
2019-05-29T10:08:52.142Z,18.259583
2019-05-29T10:09:52.245Z,18.289795
2019-05-29T10:10:52.950Z,18.340149
2019-05-29T10:11:52.374Z,18.380432
2019-05-29T10:12:52.509Z,18.410645
2019-05-29T10:13:52.639Z,18.440857
2019-05-29T10:14:52.699Z,18.460999
2019-05-29T10:15:52.865Z,18.491211
2019-05-29T10:16:53.143Z,18.511353
2019-05-29T10:17:53.111Z,18.531494
2019-05-29T10:18:53.214Z,18.561707
2019-05-29T10:19:53.327Z,18.60199
2019-05-29T10:20:53.395Z,18.622131
2019-05-29T10:21:53.563Z,18.652344
2019-05-29T10:22:53.637Z,18.662415
2019-05-29T10:23:53.757Z,18.692627
2019-05-29T10:24:53.956Z,18.692627
2019-05-29T10:25:54.022Z,18.722839
2019-05-29T10:26:54.384Z,18.742981
2019-05-29T10:29:41.303Z,18.440857
2019-05-29T10:30:40.449Z,18.440857
2019-05-29T10:31:40.492Z,18.460999
2019-05-29T10:32:40.861Z,18.511353
2019-05-29T10:33:40.726Z,18.60199
2019-05-29T10:34:40.927Z,18.692627
2019-05-29T10:35:41.089Z,18.783264
2019-05-29T10:36:40.985Z,18.904114
2019-05-29T10:37:41.228Z,19.014893
2019-05-29T10:38:41.207Z,19.095459
2019-05-29T10:39:41.307Z,19.206238
2019-05-29T10:40:41.897Z,19.306946
2019-05-29T10:41:41.451Z,19.417725
2019-05-29T10:42:41.723Z,19.498291
2019-05-29T10:43:41.645Z,19.598999
2019-05-29T10:44:41.760Z,19.649353
2019-05-29T10:45:41.982Z,19.719849
2019-05-29T10:46:42.319Z,19.800415
2019-05-29T10:47:42.087Z,19.870911
2019-05-29T10:48:42.771Z,19.941406
2019-05-29T10:49:42.315Z,20.011902
2019-05-29T10:50:42.414Z,20.042114
2019-05-29T10:51:57.762Z,20.122681
2019-05-29T10:52:42.659Z,20.162964
2019-05-29T10:53:42.838Z,20.203247
2019-05-29T10:54:42.924Z,20.263672
2019-05-29T10:55:43.082Z,20.334167
2019-05-29T10:56:43.142Z,20.354309
2019-05-29T10:57:43.230Z,20.404663
2019-05-29T10:58:49.337Z,20.444946
2019-05-29T10:59:43.429Z,20.4953
2019-05-29T11:00:43.636Z,20.505371
2019-05-29T11:01:43.720Z,20.555725
2019-05-29T11:02:44.387Z,20.575867
2019-05-29T11:03:44.229Z,20.606079
2019-05-29T11:04:47.365Z,20.636292
2019-05-29T11:05:44.166Z,20.686646
2019-05-29T11:06:44.587Z,20.716858
2019-05-29T11:07:44.402Z,20.726929
2019-05-29T11:08:44.527Z,20.777283
2019-05-29T11:09:45.397Z,20.777283
2019-05-29T11:10:44.770Z,20.807495
2019-05-29T11:11:44.910Z,20.827637
2019-05-29T11:12:45.100Z,20.86792
2019-05-29T11:13:45.338Z,20.877991
2019-05-29T11:14:45.235Z,20.898132
2019-05-29T11:15:45.360Z,20.928345
2019-05-29T11:16:45.623Z,20.938416
2019-05-29T11:17:45.808Z,20.968628
2019-05-29T11:18:46.120Z,20.99884
2019-05-29T11:19:45.925Z,21.029053
2019-05-29T11:20:46.046Z,21.029053
2019-05-29T11:21:46.202Z,21.059265
2019-05-29T11:22:46.307Z,21.079407
2019-05-29T11:23:46.432Z,21.109619
2019-05-29T11:24:46.584Z,21.11969
2019-05-29T11:25:46.696Z,21.129761
2019-05-29T11:26:46.888Z,21.159973
2019-05-29T11:27:47.054Z,21.180115
2019-05-29T11:28:47.015Z,21.210327
2019-05-29T11:29:47.188Z,21.24054
2019-05-29T11:30:47.294Z,21.260681
2019-05-29T11:31:47.305Z,21.270752